createdAt,value
2023-05-14T00:00:33.375Z,99937.34
2023-05-14T00:03:01.491Z,99934.75
2023-05-14T00:05:29.232Z,99933.44
2023-05-14T00:07:56.821Z,99931.84
2023-05-14T00:10:25.109Z,99935.16
2023-05-14T00:12:53.253Z,99931.34
2023-05-14T00:15:21.087Z,99926.16
2023-05-14T00:17:49.074Z,99932.53
2023-05-14T00:20:16.617Z,99923.38
2023-05-14T00:22:44.199Z,99928.59
2023-05-14T00:25:12.253Z,99921.97
2023-05-14T00:27:39.897Z,99925.37
2023-05-14T00:30:08.066Z,99927.75
2023-05-14T00:32:36.049Z,99925.31
2023-05-14T00:35:03.896Z,99925.66
2023-05-14T00:37:31.600Z,99923.56
2023-05-14T00:39:59.534Z,99918.34
2023-05-14T00:42:27.217Z,99914.63
2023-05-14T00:44:54.902Z,99912.38
2023-05-14T00:47:23.096Z,99906.25
2023-05-14T00:49:50.796Z,99915.22
2023-05-14T00:52:18.770Z,99909.37
2023-05-14T00:54:48.109Z,99905.84
2023-05-14T00:57:15.813Z,99898.34
2023-05-14T00:59:43.533Z,99898.28
2023-05-14T01:02:11.503Z,99892.81
2023-05-14T01:04:39.595Z,99899.88
2023-05-14T01:07:37.769Z,99893.31
2023-05-14T01:10:13.799Z,99877.66
2023-05-14T01:12:50.135Z,99877.59
2023-05-14T01:15:22.150Z,99867.03
2023-05-14T01:18:05.611Z,99863.75
2023-05-14T01:20:33.676Z,99862.53
2023-05-14T01:23:01.605Z,99855.56
2023-05-14T01:25:30.398Z,99853.72
2023-05-14T01:27:58.287Z,99855.00
2023-05-14T01:30:32.518Z,99849.66
2023-05-14T01:33:02.793Z,99845.72
2023-05-14T01:35:30.848Z,99839.25
2023-05-14T01:38:01.359Z,99853.31
2023-05-14T01:40:29.815Z,99851.16
2023-05-14T01:42:57.525Z,99849.34
2023-05-14T01:45:25.288Z,99845.44
2023-05-14T01:47:53.929Z,99835.03
2023-05-14T01:50:21.651Z,99835.97
2023-05-14T01:52:49.340Z,99822.91
2023-05-14T01:55:17.436Z,99829.44
2023-05-14T01:57:45.082Z,99822.16
2023-05-14T02:00:13.676Z,99821.84
2023-05-14T02:02:41.414Z,99826.22
2023-05-14T02:05:10.950Z,99820.25
2023-05-14T02:07:38.933Z,99816.78
2023-05-14T02:10:07.471Z,99810.50
2023-05-14T02:12:35.498Z,99801.84
2023-05-14T02:15:04.133Z,99796.25
2023-05-14T02:17:31.933Z,99798.34
2023-05-14T02:19:59.535Z,99794.78
2023-05-14T02:22:27.452Z,99798.75
2023-05-14T02:24:55.021Z,99801.53
2023-05-14T02:27:22.663Z,99801.34
2023-05-14T02:29:50.642Z,99799.16
2023-05-14T02:32:18.348Z,99794.91
2023-05-14T02:34:45.988Z,99803.13
2023-05-14T02:37:13.906Z,99806.22
2023-05-14T02:39:41.544Z,99802.16
2023-05-14T02:42:09.245Z,99802.25
2023-05-14T02:44:37.371Z,99796.88
2023-05-14T02:47:05.276Z,99800.84
2023-05-14T02:49:33.023Z,99799.66
2023-05-14T02:52:00.934Z,99806.62
2023-05-14T02:54:28.762Z,99803.69
2023-05-14T02:56:56.497Z,99800.56
2023-05-14T02:59:24.539Z,99804.75
2023-05-14T03:01:52.838Z,99799.75
2023-05-14T03:04:21.312Z,99792.38
2023-05-14T03:06:49.421Z,99789.41
2023-05-14T03:09:17.194Z,99790.00
2023-05-14T03:11:44.817Z,99793.50
2023-05-14T03:14:12.695Z,99792.50
2023-05-14T03:16:40.396Z,99800.09
2023-05-14T03:19:08.409Z,99789.22
2023-05-14T03:21:36.445Z,99800.00
2023-05-14T03:24:04.152Z,99792.63
2023-05-14T03:26:31.773Z,99800.09
2023-05-14T03:28:59.737Z,99793.03
2023-05-14T03:31:27.365Z,99794.78
2023-05-14T03:33:57.267Z,99805.53
2023-05-14T03:36:25.125Z,99800.50
2023-05-14T03:38:53.678Z,99802.41
2023-05-14T03:41:21.247Z,99800.75
2023-05-14T03:43:49.231Z,99803.69
2023-05-14T03:46:16.842Z,99802.78
2023-05-14T03:48:44.499Z,99811.56
2023-05-14T03:51:13.500Z,99806.47
2023-05-14T03:53:41.266Z,99810.37
2023-05-14T03:56:08.896Z,99799.97
2023-05-14T03:58:36.801Z,99799.31
2023-05-14T04:01:04.491Z,99792.41
2023-05-14T04:03:32.680Z,99787.31
2023-05-14T04:06:01.368Z,99781.34
2023-05-14T04:08:29.084Z,99777.94
2023-05-14T04:10:57.457Z,99781.81
2023-05-14T04:13:25.166Z,99794.28
2023-05-14T04:15:53.015Z,99795.97
2023-05-14T04:18:21.139Z,99801.91
2023-05-14T04:20:49.758Z,99802.19
2023-05-14T04:23:18.107Z,99793.50
2023-05-14T04:25:46.081Z,99797.66
2023-05-14T04:28:13.666Z,99796.22
2023-05-14T04:30:41.279Z,99787.41
2023-05-14T04:33:09.442Z,99783.22
2023-05-14T04:35:37.169Z,99783.22
2023-05-14T04:38:04.803Z,99786.72
2023-05-14T04:40:32.870Z,99785.91
2023-05-14T04:43:00.535Z,99790.72
2023-05-14T04:45:28.260Z,99793.09
2023-05-14T04:47:56.146Z,99783.44
2023-05-14T04:50:24.123Z,99784.19
2023-05-14T04:52:52.182Z,99784.22
2023-05-14T04:55:20.119Z,99783.72
2023-05-14T04:57:47.774Z,99781.13
2023-05-14T05:00:16.983Z,99775.66
2023-05-14T05:02:44.934Z,99773.66
2023-05-14T05:05:12.653Z,99773.06
2023-05-14T05:07:40.367Z,99771.38
2023-05-14T05:10:08.756Z,99770.47
2023-05-14T05:12:36.347Z,99767.78
2023-05-14T05:15:04.685Z,99760.94
2023-05-14T05:17:32.712Z,99759.94
2023-05-14T05:20:00.363Z,99763.72
2023-05-14T05:22:28.041Z,99762.72
2023-05-14T05:24:56.080Z,99765.84
2023-05-14T05:27:23.684Z,99759.84
2023-05-14T05:29:51.673Z,99766.94
2023-05-14T05:32:19.620Z,99764.94
2023-05-14T05:34:47.342Z,99757.06
2023-05-14T05:37:15.030Z,99774.59
2023-05-14T05:39:43.084Z,99767.72
2023-05-14T05:42:10.788Z,99762.44
2023-05-14T05:44:38.410Z,99769.03
2023-05-14T05:47:06.586Z,99763.44
2023-05-14T05:49:34.262Z,99770.25
2023-05-14T05:52:01.963Z,99767.84
2023-05-14T05:54:30.995Z,99767.75
2023-05-14T05:56:59.302Z,99759.19
2023-05-14T05:59:26.923Z,99767.75
2023-05-14T06:01:54.863Z,99764.28
2023-05-14T06:04:22.756Z,99769.84
2023-05-14T06:06:50.502Z,99768.66
2023-05-14T06:09:18.117Z,99758.06
2023-05-14T06:11:45.986Z,99769.84
2023-05-14T06:14:13.633Z,99769.06
2023-05-14T06:16:41.345Z,99776.22
2023-05-14T06:19:09.439Z,99778.84
2023-05-14T06:21:37.097Z,99784.31
2023-05-14T06:24:05.027Z,99774.47
2023-05-14T06:26:32.970Z,99777.91
2023-05-14T06:29:00.630Z,99781.22
2023-05-14T06:31:28.475Z,99776.44
2023-05-14T06:33:56.525Z,99785.81
2023-05-14T06:36:24.350Z,99775.94
2023-05-14T06:38:52.277Z,99775.34
2023-05-14T06:41:20.257Z,99784.09
2023-05-14T06:43:47.901Z,99774.91
2023-05-14T06:46:15.503Z,99779.59
2023-05-14T06:48:46.304Z,99772.53
2023-05-14T06:51:14.081Z,99774.72
2023-05-14T06:53:41.819Z,99768.12
2023-05-14T06:56:09.676Z,99764.03
2023-05-14T06:58:37.306Z,99762.81
2023-05-14T07:01:05.132Z,99766.53
2023-05-14T07:03:33.069Z,99758.31
2023-05-14T07:06:00.779Z,99760.78
2023-05-14T07:08:28.435Z,99745.59
2023-05-14T07:10:56.263Z,99754.69
2023-05-14T07:13:28.325Z,99750.75
2023-05-14T07:15:56.601Z,99749.53
2023-05-14T07:18:24.235Z,99749.09
2023-05-14T07:20:51.936Z,99745.28
2023-05-14T07:23:20.080Z,99740.91
2023-05-14T07:25:47.752Z,99739.41
2023-05-14T07:28:15.404Z,99740.69
2023-05-14T07:30:43.380Z,99739.97
2023-05-14T07:33:11.127Z,99730.09
2023-05-14T07:35:38.832Z,99724.50
2023-05-14T07:38:06.971Z,99734.09
2023-05-14T07:40:34.572Z,99730.66
2023-05-14T07:43:02.262Z,99723.16
2023-05-14T07:45:30.283Z,99724.94
2023-05-14T07:47:57.965Z,99720.66
2023-05-14T07:50:25.915Z,99717.94
2023-05-14T07:52:53.865Z,99717.34
2023-05-14T07:55:21.449Z,99722.62
2023-05-14T07:57:49.155Z,99713.31
2023-05-14T08:00:17.263Z,99720.94
2023-05-14T08:02:45.329Z,99717.63
2023-05-14T08:05:13.123Z,99717.50
2023-05-14T08:07:40.666Z,99710.34
2023-05-14T08:10:09.035Z,99710.00
2023-05-14T08:12:36.682Z,99708.44
2023-05-14T08:15:05.569Z,99706.38
2023-05-14T08:17:33.904Z,99708.16
2023-05-14T08:20:01.650Z,99700.34
2023-05-14T08:22:29.380Z,99708.78
2023-05-14T08:24:57.253Z,99698.31
2023-05-14T08:27:25.157Z,99690.97
2023-05-14T08:29:53.040Z,99690.44
2023-05-14T08:32:23.876Z,99679.81
2023-05-14T08:34:52.401Z,99681.56
2023-05-14T08:37:20.132Z,99679.97
2023-05-14T08:39:48.109Z,99680.53
2023-05-14T08:42:16.105Z,99670.66
2023-05-14T08:44:53.599Z,99665.47
2023-05-14T08:47:21.992Z,99663.09
2023-05-14T08:49:59.464Z,99669.25
2023-05-14T08:52:27.524Z,99660.41
2023-05-14T08:54:56.055Z,99658.03
2023-05-14T08:57:25.293Z,99652.31
2023-05-14T08:59:53.866Z,99650.31
2023-05-14T09:02:23.913Z,99649.19
2023-05-14T09:04:55.913Z,99651.09
2023-05-14T09:07:24.464Z,99651.50
2023-05-14T09:09:52.936Z,99653.72
2023-05-14T09:12:21.498Z,99642.63
2023-05-14T09:14:50.262Z,99639.62
2023-05-14T09:17:18.638Z,99643.31
2023-05-14T09:19:46.751Z,99639.31
2023-05-14T09:22:16.981Z,99641.94
2023-05-14T09:24:45.482Z,99633.94
2023-05-14T09:27:19.190Z,99644.34
2023-05-14T09:29:47.708Z,99652.13
2023-05-14T09:32:15.247Z,99643.22
2023-05-14T09:34:42.859Z,99630.56
2023-05-14T09:37:10.974Z,99633.34
2023-05-14T09:39:38.919Z,99635.37
2023-05-14T09:42:06.777Z,99631.38
2023-05-14T09:44:35.254Z,99622.56
2023-05-14T09:47:02.984Z,99627.53
2023-05-14T09:49:30.685Z,99627.25
2023-05-14T09:51:58.648Z,99621.44
2023-05-14T09:54:26.800Z,99611.94
2023-05-14T09:56:55.756Z,99612.47
2023-05-14T09:59:23.829Z,99625.47
2023-05-14T10:01:52.428Z,99604.19
2023-05-14T10:04:20.776Z,99606.84
2023-05-14T10:06:51.221Z,99606.06
2023-05-14T10:09:21.200Z,99594.75
2023-05-14T10:11:53.403Z,99588.87
2023-05-14T10:14:25.487Z,99595.03
2023-05-14T10:16:54.161Z,99588.72
2023-05-14T10:19:24.681Z,99577.31
2023-05-14T10:21:57.309Z,99572.78
2023-05-14T10:24:25.962Z,99551.06
2023-05-14T10:26:54.185Z,99532.66
2023-05-14T10:29:32.480Z,99519.09
2023-05-14T10:32:06.692Z,99511.72
2023-05-14T10:34:35.245Z,99498.84
2023-05-14T10:37:23.970Z,99488.09
2023-05-14T10:39:59.672Z,99500.00
2023-05-14T10:42:32.575Z,99508.69
2023-05-14T10:45:05.451Z,99524.91
2023-05-14T10:47:36.873Z,99529.50
2023-05-14T10:50:06.658Z,99532.03
2023-05-14T10:52:35.318Z,99531.78
2023-05-14T10:55:04.840Z,99535.56
2023-05-14T10:57:32.690Z,99531.41
2023-05-14T11:00:01.364Z,99533.00
2023-05-14T11:02:31.540Z,99531.09
2023-05-14T11:05:07.123Z,99527.81
2023-05-14T11:07:39.279Z,99542.06
2023-05-14T11:10:12.074Z,99525.09
2023-05-14T11:12:44.225Z,99520.69
2023-05-14T11:15:13.803Z,99517.19
2023-05-14T11:17:42.960Z,99515.75
2023-05-14T11:20:11.522Z,99501.38
2023-05-14T11:22:40.337Z,99493.47
2023-05-14T11:25:09.343Z,99490.16
2023-05-14T11:27:38.707Z,99505.72
2023-05-14T11:30:13.081Z,99503.34
2023-05-14T11:32:41.122Z,99497.69
2023-05-14T11:35:08.902Z,99497.63
2023-05-14T11:37:37.080Z,99489.97
2023-05-14T11:40:14.502Z,99491.88
2023-05-14T11:42:42.227Z,99481.25
2023-05-14T11:45:14.150Z,99481.66
2023-05-14T11:47:42.356Z,99488.97
2023-05-14T11:50:10.630Z,99490.50
2023-05-14T11:52:40.515Z,99483.03
2023-05-14T11:55:14.264Z,99485.31
2023-05-14T11:57:42.259Z,99486.59
2023-05-14T12:00:13.594Z,99484.22
2023-05-14T12:02:41.777Z,99469.84
2023-05-14T12:05:12.971Z,99469.41
2023-05-14T12:07:44.887Z,99468.41
2023-05-14T12:10:12.928Z,99464.66
2023-05-14T12:12:40.988Z,99454.19
2023-05-14T12:15:12.496Z,99442.88
2023-05-14T12:17:40.270Z,99446.56
2023-05-14T12:20:09.443Z,99453.91
2023-05-14T12:22:37.345Z,99444.09
2023-05-14T12:25:10.068Z,99443.91
2023-05-14T12:27:38.055Z,99427.69
2023-05-14T12:30:20.728Z,99421.69
2023-05-14T12:32:50.062Z,99418.31
2023-05-14T12:35:17.737Z,99408.38
2023-05-14T12:37:45.484Z,99411.41
2023-05-14T12:40:13.663Z,99405.84
2023-05-14T12:42:41.309Z,99404.50
2023-05-14T12:45:09.096Z,99400.94
2023-05-14T12:47:37.470Z,99399.16
2023-05-14T12:50:06.031Z,99403.00
2023-05-14T12:52:38.598Z,99400.94
2023-05-14T12:55:08.382Z,99398.03
2023-05-14T12:57:37.005Z,99398.84
2023-05-14T13:00:05.383Z,99404.28
2023-05-14T13:02:42.079Z,99390.94
2023-05-14T13:05:13.761Z,99383.19
2023-05-14T13:07:42.185Z,99378.75
2023-05-14T13:10:10.354Z,99376.94
2023-05-14T13:12:37.941Z,99380.84
2023-05-14T13:15:06.351Z,99370.03
2023-05-14T13:17:34.097Z,99361.88
2023-05-14T13:20:01.740Z,99360.28
2023-05-14T13:22:29.755Z,99361.22
2023-05-14T13:24:57.360Z,99358.38
2023-05-14T13:27:24.986Z,99363.94
2023-05-14T13:29:53.177Z,99366.34
2023-05-14T13:32:20.787Z,99355.59
2023-05-14T13:34:48.456Z,99353.41
2023-05-14T13:37:16.496Z,99346.00
2023-05-14T13:39:44.135Z,99350.75
2023-05-14T13:42:11.745Z,99339.41
2023-05-14T13:44:39.712Z,99338.09
2023-05-14T13:47:07.420Z,99341.25
2023-05-14T13:49:35.048Z,99349.41
2023-05-14T13:52:03.131Z,99334.50
2023-05-14T13:54:30.799Z,99334.06
2023-05-14T13:56:59.160Z,99324.00
2023-05-14T13:59:27.253Z,99327.41
2023-05-14T14:01:55.454Z,99332.50
2023-05-14T14:04:24.434Z,99331.53
2023-05-14T14:06:53.040Z,99327.38
2023-05-14T14:09:21.392Z,99331.03
2023-05-14T14:11:49.576Z,99339.59
2023-05-14T14:14:17.981Z,99341.22
2023-05-14T14:16:45.777Z,99331.06
2023-05-14T14:19:15.431Z,99319.16
2023-05-14T14:21:43.881Z,99316.13
2023-05-14T14:24:11.641Z,99313.56
2023-05-14T14:26:39.533Z,99322.34
2023-05-14T14:29:07.186Z,99319.22
2023-05-14T14:31:36.821Z,99318.72
2023-05-14T14:34:05.306Z,99312.53
2023-05-14T14:36:33.403Z,99314.28
2023-05-14T14:39:01.119Z,99313.66
2023-05-14T14:41:29.134Z,99312.41
2023-05-14T14:43:56.835Z,99306.19
2023-05-14T14:46:24.493Z,99304.62
2023-05-14T14:48:52.858Z,99304.47
2023-05-14T14:51:20.613Z,99295.44
2023-05-14T14:53:48.404Z,99291.00
2023-05-14T14:56:16.487Z,99290.06
2023-05-14T14:58:44.150Z,99279.44
2023-05-14T15:01:11.853Z,99264.53
2023-05-14T15:03:40.191Z,99259.47
2023-05-14T15:06:08.093Z,99255.81
2023-05-14T15:08:35.772Z,99256.44
2023-05-14T15:11:03.854Z,99245.38
2023-05-14T15:13:31.703Z,99249.62
2023-05-14T15:15:59.685Z,99248.03
2023-05-14T15:18:27.802Z,99243.47
2023-05-14T15:20:56.540Z,99247.41
2023-05-14T15:23:24.412Z,99249.28
2023-05-14T15:25:52.781Z,99252.16
2023-05-14T15:28:20.624Z,99245.69
2023-05-14T15:30:48.466Z,99241.88
2023-05-14T15:33:16.597Z,99246.78
2023-05-14T15:35:44.526Z,99249.16
2023-05-14T15:38:12.306Z,99248.84
2023-05-14T15:40:40.763Z,99231.09
2023-05-14T15:43:08.539Z,99241.72
2023-05-14T15:45:36.368Z,99238.87
2023-05-14T15:48:05.272Z,99239.50
2023-05-14T15:50:33.410Z,99242.03
2023-05-14T15:53:01.183Z,99244.75
2023-05-14T15:55:29.243Z,99246.31
2023-05-14T15:57:57.187Z,99240.59
2023-05-14T16:00:25.257Z,99232.19
2023-05-14T16:02:54.174Z,99231.87
2023-05-14T16:05:21.991Z,99213.03
2023-05-14T16:07:49.669Z,99209.41
2023-05-14T16:10:18.537Z,99207.66
2023-05-14T16:12:46.426Z,99196.88
2023-05-14T16:15:14.241Z,99192.13
2023-05-14T16:17:42.318Z,99185.63
2023-05-14T16:20:10.831Z,99191.19
2023-05-14T16:22:38.606Z,99175.47
2023-05-14T16:25:07.035Z,99187.38
2023-05-14T16:27:34.794Z,99190.69
2023-05-14T16:30:02.688Z,99191.00
2023-05-14T16:32:30.853Z,99185.13
2023-05-14T16:34:58.652Z,99188.66
2023-05-14T16:37:26.674Z,99179.44
2023-05-14T16:39:55.003Z,99150.91
2023-05-14T16:42:22.925Z,99197.69
2023-05-14T16:44:50.938Z,99206.06
2023-05-14T16:47:19.071Z,99211.44
2023-05-14T16:49:46.754Z,99197.84
2023-05-14T16:52:14.662Z,99194.47
2023-05-14T16:54:42.764Z,99178.19
2023-05-14T16:57:10.793Z,99162.03
2023-05-14T16:59:38.760Z,99159.66
2023-05-14T17:02:07.196Z,99148.53
2023-05-14T17:04:34.864Z,99145.22
2023-05-14T17:07:02.654Z,99148.56
2023-05-14T17:09:30.703Z,99159.97
2023-05-14T17:11:58.360Z,99154.09
2023-05-14T17:14:26.004Z,99158.84
2023-05-14T17:16:54.410Z,99156.44
2023-05-14T17:19:22.083Z,99153.41
2023-05-14T17:21:50.011Z,99141.53
2023-05-14T17:24:18.011Z,99133.13
2023-05-14T17:26:45.708Z,99123.03
2023-05-14T17:29:13.420Z,99132.66
2023-05-14T17:31:41.401Z,99134.88
2023-05-14T17:34:09.098Z,99129.22
2023-05-14T17:36:36.699Z,99123.00
2023-05-14T17:39:04.610Z,99109.34
2023-05-14T17:41:32.269Z,99104.78
2023-05-14T17:44:00.013Z,99115.41
2023-05-14T17:46:27.976Z,99120.34
2023-05-14T17:48:55.645Z,99113.84
2023-05-14T17:51:23.413Z,99111.09
2023-05-14T17:53:51.806Z,99107.47
2023-05-14T17:56:20.304Z,99104.13
2023-05-14T17:58:49.112Z,99101.91
2023-05-14T18:01:17.263Z,99097.84
2023-05-14T18:03:45.524Z,99085.44
2023-05-14T18:06:13.213Z,99094.47
2023-05-14T18:08:40.881Z,99089.06
2023-05-14T18:11:09.080Z,99083.22
2023-05-14T18:13:37.065Z,99089.06
2023-05-14T18:16:05.227Z,99080.16
2023-05-14T18:18:33.318Z,99083.09
2023-05-14T18:21:01.384Z,99076.59
2023-05-14T18:23:29.076Z,99070.69
2023-05-14T18:25:57.247Z,99080.66
2023-05-14T18:28:25.461Z,99084.16
2023-05-14T18:30:53.585Z,99077.00
2023-05-14T18:33:21.697Z,99089.88
2023-05-14T18:35:49.775Z,99078.28
2023-05-14T18:38:17.711Z,99059.31
2023-05-14T18:40:45.993Z,99055.53
2023-05-14T18:43:13.985Z,99067.09
2023-05-14T18:45:41.971Z,99073.38
2023-05-14T18:48:10.273Z,99073.66
2023-05-14T18:50:39.388Z,99082.12
2023-05-14T18:53:07.617Z,99076.06
2023-05-14T18:55:36.150Z,99075.69
2023-05-14T18:58:05.055Z,99086.06
2023-05-14T19:00:32.705Z,99073.78
2023-05-14T19:03:00.828Z,99077.66
2023-05-14T19:05:28.702Z,99082.38
2023-05-14T19:07:56.821Z,99075.75
2023-05-14T19:10:25.002Z,99073.00
2023-05-14T19:12:53.334Z,99082.06
2023-05-14T19:15:21.000Z,99084.44
2023-05-14T19:17:49.049Z,99082.81
2023-05-14T19:20:16.929Z,99085.34
2023-05-14T19:22:44.857Z,99090.09
2023-05-14T19:25:12.828Z,99072.66
2023-05-14T19:27:40.949Z,99068.19
2023-05-14T19:30:09.170Z,99065.81
2023-05-14T19:32:37.369Z,99068.22
2023-05-14T19:35:05.695Z,99066.81
2023-05-14T19:37:33.341Z,99058.41
2023-05-14T19:40:01.399Z,99052.22
2023-05-14T19:42:29.247Z,99031.59
2023-05-14T19:44:57.099Z,99022.44
2023-05-14T19:47:25.167Z,99029.47
2023-05-14T19:49:53.103Z,99027.50
2023-05-14T19:52:20.955Z,99033.41
2023-05-14T19:54:48.940Z,99038.94
2023-05-14T19:57:16.751Z,99029.34
2023-05-14T19:59:44.400Z,99033.37
2023-05-14T20:02:12.338Z,99031.09
2023-05-14T20:04:40.541Z,99027.09
2023-05-14T20:07:08.331Z,99034.53
2023-05-14T20:09:35.996Z,99015.84
2023-05-14T20:12:04.230Z,99025.19
2023-05-14T20:14:32.075Z,99017.44
2023-05-14T20:16:59.865Z,99022.75
2023-05-14T20:19:27.924Z,99028.41
2023-05-14T20:21:55.487Z,99016.41
2023-05-14T20:24:23.126Z,99015.78
2023-05-14T20:26:51.806Z,99010.00
2023-05-14T20:29:20.800Z,99012.06
2023-05-14T20:31:48.895Z,99005.72
2023-05-14T20:34:18.350Z,99014.59
2023-05-14T20:36:46.483Z,99014.75
2023-05-14T20:39:15.167Z,99013.75
2023-05-14T20:41:43.872Z,99018.87
2023-05-14T20:44:13.902Z,99014.94
2023-05-14T20:46:41.622Z,99016.91
2023-05-14T20:49:09.641Z,99020.06
2023-05-14T20:51:37.370Z,99030.31
2023-05-14T20:54:05.082Z,99047.56
2023-05-14T20:56:33.112Z,99052.91
2023-05-14T20:59:00.774Z,99068.28
2023-05-14T21:01:28.369Z,99082.53
2023-05-14T21:03:56.823Z,99079.53
2023-05-14T21:06:24.672Z,99067.31
2023-05-14T21:08:52.671Z,99049.91
2023-05-14T21:11:20.670Z,99035.63
2023-05-14T21:13:48.282Z,99025.94
2023-05-14T21:16:16.083Z,99012.78
2023-05-14T21:18:44.126Z,99033.75
2023-05-14T21:21:11.801Z,99024.50
2023-05-14T21:23:39.506Z,99024.97
2023-05-14T21:26:07.424Z,99019.09
2023-05-14T21:28:35.088Z,99012.13
2023-05-14T21:31:02.755Z,99010.37
2023-05-14T21:33:30.736Z,99007.63
2023-05-14T21:35:58.305Z,98997.38
2023-05-14T21:38:26.046Z,98986.59
2023-05-14T21:40:54.267Z,98985.50
2023-05-14T21:43:21.870Z,98971.87
2023-05-14T21:45:49.470Z,98967.78
2023-05-14T21:48:17.557Z,98965.41
2023-05-14T21:50:45.358Z,98960.69
2023-05-14T21:53:12.972Z,98955.75
2023-05-14T21:55:41.580Z,98945.19
2023-05-14T21:58:09.292Z,98935.31
2023-05-14T22:00:37.002Z,98934.19
2023-05-14T22:03:04.945Z,98929.13
2023-05-14T22:05:32.698Z,98922.34
2023-05-14T22:08:00.454Z,98919.19
2023-05-14T22:10:28.541Z,98920.84
2023-05-14T22:12:56.080Z,98929.47
2023-05-14T22:15:23.839Z,98917.63
2023-05-14T22:17:52.266Z,98922.75
2023-05-14T22:20:19.875Z,98915.81
2023-05-14T22:22:47.520Z,98919.00
2023-05-14T22:25:16.004Z,98920.84
2023-05-14T22:27:43.644Z,98928.59
2023-05-14T22:30:11.507Z,98929.00
2023-05-14T22:32:39.371Z,98927.03
2023-05-14T22:35:07.268Z,98927.59
2023-05-14T22:37:35.307Z,98914.91
2023-05-14T22:40:03.324Z,98909.53
2023-05-14T22:42:31.592Z,98920.44
2023-05-14T22:44:59.488Z,98917.91
2023-05-14T22:47:27.529Z,98901.75
2023-05-14T22:49:55.124Z,98904.22
2023-05-14T22:52:22.745Z,98899.06
2023-05-14T22:54:50.792Z,98903.41
2023-05-14T22:57:18.363Z,98902.97
2023-05-14T22:59:45.928Z,98896.66
2023-05-14T23:02:13.881Z,98904.53
2023-05-14T23:04:41.534Z,98896.13
2023-05-14T23:07:09.631Z,98897.69
2023-05-14T23:09:37.530Z,98895.75
2023-05-14T23:12:05.523Z,98898.44
2023-05-14T23:14:33.194Z,98900.59
2023-05-14T23:17:01.716Z,98896.16
2023-05-14T23:19:29.264Z,98886.03
2023-05-14T23:21:56.951Z,98885.25
2023-05-14T23:24:24.924Z,98887.97
2023-05-14T23:26:52.839Z,98882.84
2023-05-14T23:29:20.399Z,98871.09
2023-05-14T23:31:48.335Z,98866.47
2023-05-14T23:34:16.108Z,98873.56
2023-05-14T23:36:44.209Z,98865.59
2023-05-14T23:39:12.280Z,98860.09
2023-05-14T23:41:39.962Z,98855.16
2023-05-14T23:44:07.701Z,98854.94
2023-05-14T23:46:35.711Z,98851.09
2023-05-14T23:49:03.414Z,98850.75
2023-05-14T23:51:31.092Z,98854.12
2023-05-14T23:53:59.002Z,98849.63
2023-05-14T23:56:27.150Z,98853.97
2023-05-14T23:58:55.277Z,98842.91
